Time;durP1;ratioP1;P1;durP2;ratioP2;P2;SDS_P1;SDS_P2;PMS_P1;PMS_P2;Temp;Humidity;BMP_temperature;BMP_pressure;BME280_temperature;BME280_humidity;BME280_pressure;Samples;Min_cycle;Max_cycle;Signal;HPM_P1;HPM_P2
2023/09/05 00:02:17;;;;;;;3.10;2.10;;;;;;;;;;5072869;28;20179;-74
2023/09/05 00:05:21;;;;;;;5.27;2.17;;;;;;;;;;5073024;28;20176;-73
2023/09/05 00:08:25;;;;;;;2.73;1.80;;;;;;;;;;5072993;28;20171;-73
2023/09/05 00:11:30;;;;;;;4.90;2.27;;;;;;;;;;5072032;28;20666;-74
2023/09/05 00:14:35;;;;;;;5.40;2.43;;;;;;;;;;5072920;28;20175;-74
2023/09/05 00:17:40;;;;;;;3.20;2.30;;;;;;;;;;5072723;28;20195;-73
2023/09/05 00:20:46;;;;;;;2.80;2.10;;;;;;;;;;5072819;28;20191;-73
2023/09/05 00:23:50;;;;;;;3.97;2.50;;;;;;;;;;5072746;28;20215;-74
2023/09/05 00:26:57;;;;;;;3.37;2.17;;;;;;;;;;5072699;28;20207;-73
2023/09/05 00:30:03;;;;;;;2.13;1.93;;;;;;;;;;5072660;28;20634;-73
2023/09/05 00:33:09;;;;;;;2.80;2.23;;;;;;;;;;5071802;28;20693;-73
2023/09/05 00:36:13;;;;;;;5.73;2.60;;;;;;;;;;5072252;28;20183;-74
2023/09/05 00:39:17;;;;;;;3.73;2.20;;;;;;;;;;5072672;28;20183;-74
2023/09/05 00:42:21;;;;;;;3.43;2.20;;;;;;;;;;5072791;28;20211;-73
2023/09/05 00:45:25;;;;;;;6.53;2.27;;;;;;;;;;5072020;28;20172;-74
2023/09/05 00:48:32;;;;;;;4.90;2.50;;;;;;;;;;5071982;28;20203;-74
2023/09/05 00:51:37;;;;;;;5.70;2.10;;;;;;;;;;5073537;28;20176;-73
2023/09/05 00:54:42;;;;;;;4.53;2.77;;;;;;;;;;5075481;28;20175;-73
2023/09/05 00:57:47;;;;;;;3.23;2.47;;;;;;;;;;5076201;28;20622;-74
2023/09/05 01:00:51;;;;;;;2.83;2.53;;;;;;;;;;5075324;28;20528;-73
2023/09/05 01:03:57;;;;;;;2.60;2.10;;;;;;;;;;5075291;28;20709;-73
2023/09/05 01:07:16;;;;;;;2.80;2.30;;;;;;;;;;5075873;28;20224;-74
2023/09/05 01:10:28;;;;;;;4.00;2.60;;;;;;;;;;5098555;28;20200;-74
2023/09/05 01:13:32;;;;;;;3.97;2.67;;;;;;;;;;5075100;28;20212;-74
2023/09/05 01:16:43;;;;;;;4.60;2.70;;;;;;;;;;5075787;28;20195;-73
2023/09/05 01:19:50;;;;;;;4.70;3.07;;;;;;;;;;5075836;28;20183;-74
2023/09/05 01:23:06;;;;;;;5.60;2.50;;;;;;;;;;5075592;28;20211;-74
2023/09/05 01:26:11;;;;;;;5.17;2.83;;;;;;;;;;5075974;28;20623;-74
2023/09/05 01:29:25;;;;;;;3.80;2.57;;;;;;;;;;5075050;28;20172;-73
2023/09/05 01:32:29;;;;;;;3.00;2.53;;;;;;;;;;5075706;28;20709;-74
2023/09/05 01:35:33;;;;;;;5.23;2.47;;;;;;;;;;5063472;28;20176;-74
2023/09/05 01:38:38;;;;;;;3.23;2.40;;;;;;;;;;5075504;28;20180;-74
2023/09/05 01:41:42;;;;;;;3.20;2.50;;;;;;;;;;5075365;28;20179;-73
2023/09/05 01:44:46;;;;;;;3.20;2.40;;;;;;;;;;5074546;28;20531;-74
2023/09/05 01:47:50;;;;;;;4.80;2.70;;;;;;;;;;5074564;28;20207;-73
2023/09/05 01:50:54;;;;;;;3.27;2.50;;;;;;;;;;5074510;28;20179;-74
2023/09/05 01:53:58;;;;;;;5.00;2.97;;;;;;;;;;5074281;28;20211;-73
2023/09/05 01:57:03;;;;;;;2.70;2.30;;;;;;;;;;5097607;28;20176;-73
2023/09/05 02:00:08;;;;;;;2.90;2.27;;;;;;;;;;5074254;28;20175;-74
2023/09/05 02:03:20;;;;;;;3.20;2.40;;;;;;;;;;5073721;28;20559;-74
2023/09/05 02:06:24;;;;;;;2.97;2.43;;;;;;;;;;5075180;28;20635;-74
2023/09/05 02:12:38;;;;;;;7.80;2.60;;;;;;;;;;5625711;23;20232;-84
2023/09/05 02:15:43;;;;;;;6.13;2.60;;;;;;;;;;4908504;29;20189;-84
2023/09/05 02:18:48;;;;;;;3.10;2.60;;;;;;;;;;4941390;29;20184;-84
2023/09/05 02:21:55;;;;;;;3.53;2.50;;;;;;;;;;4919569;29;20185;-83
2023/09/05 02:25:02;;;;;;;4.97;2.27;;;;;;;;;;4910592;29;20189;-83
2023/09/05 02:28:06;;;;;;;4.30;2.70;;;;;;;;;;4915395;29;20208;-84
2023/09/05 02:31:10;;;;;;;2.50;2.23;;;;;;;;;;4915011;29;20188;-83
2023/09/05 02:34:15;;;;;;;3.57;2.63;;;;;;;;;;4916084;29;20177;-84
2023/09/05 02:37:20;;;;;;;3.40;2.50;;;;;;;;;;4914479;29;20185;-83
2023/09/05 02:40:24;;;;;;;3.63;3.00;;;;;;;;;;4925256;29;20185;-82
2023/09/05 02:43:29;;;;;;;4.20;2.67;;;;;;;;;;4913646;29;20705;-83
2023/09/05 02:46:33;;;;;;;3.50;2.60;;;;;;;;;;4924651;29;20184;-82
2023/09/05 02:49:37;;;;;;;3.50;2.80;;;;;;;;;;4924303;29;20181;-83
2023/09/05 02:52:41;;;;;;;4.03;2.50;;;;;;;;;;4924380;29;20221;-82
2023/09/05 02:55:45;;;;;;;5.07;2.80;;;;;;;;;;4925348;29;20189;-83
2023/09/05 02:58:49;;;;;;;3.83;3.03;;;;;;;;;;4924710;29;20177;-83
2023/09/05 03:01:54;;;;;;;3.43;2.30;;;;;;;;;;4925296;29;20520;-82
2023/09/05 03:04:58;;;;;;;3.60;2.73;;;;;;;;;;4913138;29;20626;-83
2023/09/05 03:08:03;;;;;;;4.17;2.53;;;;;;;;;;4913765;29;20204;-83
2023/09/05 03:11:07;;;;;;;3.63;2.63;;;;;;;;;;4913658;29;20189;-83
2023/09/05 03:14:11;;;;;;;3.20;2.50;;;;;;;;;;4924276;29;20212;-82
2023/09/05 03:17:16;;;;;;;3.40;2.43;;;;;;;;;;4923995;29;20185;-83
2023/09/05 03:20:25;;;;;;;5.00;2.57;;;;;;;;;;4923614;29;20185;-83
2023/09/05 03:23:30;;;;;;;3.77;3.00;;;;;;;;;;4924876;29;20225;-83
2023/09/05 03:26:34;;;;;;;4.23;2.40;;;;;;;;;;4914124;29;20189;-82
2023/09/05 03:29:38;;;;;;;5.13;2.50;;;;;;;;;;4923833;29;20520;-83
2023/09/05 03:32:42;;;;;;;5.57;3.00;;;;;;;;;;4923809;29;20697;-83
2023/09/05 03:35:46;;;;;;;4.17;3.20;;;;;;;;;;4923988;29;20184;-83
2023/09/05 03:38:51;;;;;;;5.03;2.97;;;;;;;;;;4923912;29;20185;-83
2023/09/05 03:41:56;;;;;;;3.00;2.70;;;;;;;;;;4923530;29;20189;-82
2023/09/05 03:45:01;;;;;;;4.77;2.93;;;;;;;;;;4923147;29;20185;-83
2023/09/05 03:48:06;;;;;;;5.20;2.90;;;;;;;;;;4923687;29;20212;-83
2023/09/05 03:51:10;;;;;;;11.50;3.50;;;;;;;;;;4912797;29;20192;-83
2023/09/05 03:54:14;;;;;;;7.57;2.87;;;;;;;;;;4924440;29;20189;-83
2023/09/05 03:57:18;;;;;;;6.27;3.07;;;;;;;;;;4924028;29;20188;-83
2023/09/05 04:00:22;;;;;;;4.57;2.93;;;;;;;;;;4911296;29;20185;-83
2023/09/05 04:03:27;;;;;;;6.43;2.93;;;;;;;;;;4922275;29;20224;-82
2023/09/05 04:06:31;;;;;;;3.50;3.00;;;;;;;;;;4921260;29;20189;-82
2023/09/05 04:09:35;;;;;;;4.37;3.13;;;;;;;;;;4910639;29;20181;-82
2023/09/05 04:12:40;;;;;;;5.27;3.40;;;;;;;;;;4900041;29;20228;-83
2023/09/05 04:15:44;;;;;;;5.70;3.17;;;;;;;;;;4922020;29;20185;-83
2023/09/05 04:18:48;;;;;;;6.07;3.93;;;;;;;;;;4910740;29;20189;-83
2023/09/05 04:21:52;;;;;;;5.40;3.70;;;;;;;;;;4919952;29;20536;-82
2023/09/05 04:24:56;;;;;;;5.33;3.40;;;;;;;;;;4921265;29;20180;-82
2023/09/05 04:28:00;;;;;;;8.30;3.60;;;;;;;;;;4923966;29;20205;-82
2023/09/05 04:31:05;;;;;;;8.87;3.67;;;;;;;;;;4925295;29;20291;-82
2023/09/05 04:34:08;;;;;;;10.87;3.37;;;;;;;;;;4924370;29;20185;-82
2023/09/05 04:37:17;;;;;;;7.80;3.67;;;;;;;;;;4924198;29;20519;-82
2023/09/05 04:40:22;;;;;;;10.13;3.73;;;;;;;;;;4924487;29;20642;-82
2023/09/05 04:43:26;;;;;;;4.23;3.50;;;;;;;;;;4914188;29;20216;-82
2023/09/05 04:46:33;;;;;;;5.43;3.70;;;;;;;;;;4924028;29;20185;-80
2023/09/05 04:49:37;;;;;;;8.03;3.77;;;;;;;;;;4923292;29;20208;-80
2023/09/05 04:52:41;;;;;;;3.97;3.23;;;;;;;;;;4922963;29;20224;-80
2023/09/05 04:55:47;;;;;;;6.70;3.60;;;;;;;;;;4924026;29;20189;-83
2023/09/05 04:58:51;;;;;;;8.43;3.30;;;;;;;;;;4926527;29;20181;-82
2023/09/05 05:01:56;;;;;;;6.20;3.30;;;;;;;;;;4924356;29;20185;-82
2023/09/05 05:05:00;;;;;;;3.77;2.73;;;;;;;;;;4901641;29;20526;-82
2023/09/05 05:08:04;;;;;;;5.60;3.87;;;;;;;;;;4923766;29;20213;-82
2023/09/05 05:11:08;;;;;;;9.03;3.70;;;;;;;;;;4922800;29;20192;-82
2023/09/05 05:14:12;;;;;;;6.10;3.40;;;;;;;;;;4922885;29;20212;-83
2023/09/05 05:17:17;;;;;;;10.50;3.53;;;;;;;;;;4922535;29;20181;-83
2023/09/05 05:20:21;;;;;;;11.67;3.87;;;;;;;;;;4900743;29;20185;-83
2023/09/05 05:23:25;;;;;;;5.47;3.50;;;;;;;;;;4922749;29;20216;-82
2023/09/05 05:26:30;;;;;;;5.33;3.83;;;;;;;;;;4922765;29;20185;-83
2023/09/05 05:29:34;;;;;;;21.10;4.87;;;;;;;;;;4922802;29;20205;-82
2023/09/05 05:32:38;;;;;;;4.53;3.30;;;;;;;;;;4923462;29;20229;-81
2023/09/05 05:35:43;;;;;;;12.70;3.97;;;;;;;;;;4912071;29;20185;-81
2023/09/05 05:38:46;;;;;;;4.30;3.13;;;;;;;;;;4922629;29;20524;-81
2023/09/05 05:41:50;;;;;;;8.67;3.33;;;;;;;;;;4921992;29;20527;-82
2023/09/05 05:44:55;;;;;;;6.47;3.17;;;;;;;;;;4922489;29;20185;-81
2023/09/05 05:47:59;;;;;;;8.27;3.30;;;;;;;;;;4921604;29;20212;-81
2023/09/05 05:51:03;;;;;;;17.73;4.30;;;;;;;;;;4924184;29;20539;-82
2023/09/05 05:54:07;;;;;;;8.03;3.60;;;;;;;;;;4922544;29;20578;-81
2023/09/05 05:57:11;;;;;;;107.20;10.57;;;;;;;;;;4922333;29;20638;-82
2023/09/05 06:00:16;;;;;;;54.07;5.90;;;;;;;;;;4922131;29;20188;-81
2023/09/05 06:03:21;;;;;;;12.00;7.83;;;;;;;;;;4921869;29;20705;-81
2023/09/05 06:06:25;;;;;;;9.67;5.97;;;;;;;;;;4921337;29;20185;-81
2023/09/05 06:09:29;;;;;;;37.87;4.70;;;;;;;;;;4911133;29;20208;-82
2023/09/05 06:12:33;;;;;;;7.73;4.23;;;;;;;;;;4921934;29;20229;-82
2023/09/05 06:15:39;;;;;;;4.87;3.40;;;;;;;;;;4921198;29;20185;-81
2023/09/05 06:18:43;;;;;;;8.63;3.40;;;;;;;;;;4922488;29;20182;-82
2023/09/05 06:21:47;;;;;;;6.10;3.30;;;;;;;;;;4921217;29;20185;-81
2023/09/05 06:24:51;;;;;;;4.57;2.80;;;;;;;;;;4922193;29;20192;-82
2023/09/05 06:27:55;;;;;;;5.57;3.00;;;;;;;;;;4921206;29;20527;-82
2023/09/05 06:30:59;;;;;;;7.53;3.20;;;;;;;;;;4921068;29;20192;-82
2023/09/05 06:34:03;;;;;;;7.60;3.47;;;;;;;;;;4921455;29;20224;-81
2023/09/05 06:37:07;;;;;;;3.93;2.93;;;;;;;;;;4922046;29;20189;-81
2023/09/05 06:40:15;;;;;;;6.70;3.43;;;;;;;;;;4921462;29;20181;-81
2023/09/05 06:43:19;;;;;;;15.67;4.97;;;;;;;;;;4920968;29;20224;-81
2023/09/05 06:46:23;;;;;;;17.17;3.67;;;;;;;;;;4920674;29;20555;-81
2023/09/05 06:49:27;;;;;;;8.37;3.20;;;;;;;;;;4920576;29;20687;-82
2023/09/05 06:52:32;;;;;;;4.37;3.30;;;;;;;;;;4920707;29;20220;-82
2023/09/05 06:55:36;;;;;;;5.70;2.90;;;;;;;;;;4910135;29;20180;-82
2023/09/05 06:58:40;;;;;;;6.03;3.10;;;;;;;;;;4920592;29;20177;-82
2023/09/05 07:01:45;;;;;;;4.70;2.60;;;;;;;;;;4921495;29;20528;-81
2023/09/05 07:04:50;;;;;;;7.53;2.90;;;;;;;;;;4922146;29;20189;-81
2023/09/05 07:07:54;;;;;;;20.10;3.90;;;;;;;;;;4923079;29;20524;-82
2023/09/05 07:10:59;;;;;;;4.60;2.70;;;;;;;;;;4922253;29;20559;-81
2023/09/05 07:14:03;;;;;;;7.67;2.90;;;;;;;;;;4921311;29;20575;-82
2023/09/05 07:17:08;;;;;;;5.40;2.60;;;;;;;;;;4910445;29;20189;-82
2023/09/05 07:20:12;;;;;;;6.83;3.37;;;;;;;;;;4921294;29;20181;-81
2023/09/05 07:23:16;;;;;;;6.57;3.40;;;;;;;;;;4920750;29;20705;-82
2023/09/05 07:26:20;;;;;;;4.43;2.20;;;;;;;;;;4920968;29;20185;-81
2023/09/05 07:29:26;;;;;;;3.63;2.20;;;;;;;;;;4920902;29;20686;-81
2023/09/05 07:32:30;;;;;;;4.13;2.87;;;;;;;;;;4921919;29;20224;-81
2023/09/05 07:35:34;;;;;;;3.47;2.17;;;;;;;;;;4910628;29;20189;-82
2023/09/05 07:38:38;;;;;;;9.27;2.77;;;;;;;;;;4921755;29;20535;-81
2023/09/05 07:41:42;;;;;;;7.60;2.70;;;;;;;;;;4921074;29;20185;-82
2023/09/05 07:44:46;;;;;;;5.50;2.53;;;;;;;;;;4920679;29;20631;-81
2023/09/05 07:47:51;;;;;;;3.53;2.80;;;;;;;;;;4920983;29;20185;-82
2023/09/05 07:51:04;;;;;;;2.57;2.30;;;;;;;;;;4920179;29;20236;-82
2023/09/05 07:54:14;;;;;;;7.03;2.80;;;;;;;;;;4919931;29;20193;-81
2023/09/05 07:57:18;;;;;;;5.63;2.70;;;;;;;;;;4921137;29;20638;-82
2023/09/05 08:00:26;;;;;;;4.07;2.47;;;;;;;;;;4919336;29;20185;-82
2023/09/05 08:03:30;;;;;;;5.50;2.67;;;;;;;;;;4919287;29;20225;-82
2023/09/05 08:06:35;;;;;;;6.17;2.80;;;;;;;;;;4920592;29;20660;-82
2023/09/05 08:09:39;;;;;;;5.10;2.43;;;;;;;;;;4920452;29;20208;-83
2023/09/05 08:12:44;;;;;;;9.07;2.87;;;;;;;;;;4919561;29;20228;-81
2023/09/05 08:15:50;;;;;;;3.47;2.63;;;;;;;;;;4921264;29;20532;-81
2023/09/05 08:18:54;;;;;;;7.13;2.77;;;;;;;;;;4920702;29;20181;-81
2023/09/05 08:21:58;;;;;;;43.83;3.93;;;;;;;;;;4920004;29;20185;-81
2023/09/05 08:25:04;;;;;;;9.13;2.93;;;;;;;;;;4919708;29;20185;-83
2023/09/05 08:28:09;;;;;;;3.93;2.50;;;;;;;;;;4917631;29;20185;-83
2023/09/05 08:31:13;;;;;;;25.20;3.70;;;;;;;;;;4918686;29;20173;-84
2023/09/05 08:34:17;;;;;;;3.33;2.33;;;;;;;;;;4917969;29;20186;-82
2023/09/05 08:37:21;;;;;;;6.43;2.63;;;;;;;;;;4917571;29;20192;-82
2023/09/05 08:40:26;;;;;;;3.80;2.33;;;;;;;;;;4917939;29;20181;-82
2023/09/05 08:43:30;;;;;;;3.80;2.30;;;;;;;;;;4916733;29;20225;-82
2023/09/05 08:46:35;;;;;;;4.20;2.40;;;;;;;;;;4916646;29;20182;-82
2023/09/05 08:49:40;;;;;;;3.80;2.20;;;;;;;;;;4917124;29;20218;-82
2023/09/05 08:52:46;;;;;;;19.93;3.23;;;;;;;;;;4917753;29;20223;-82
2023/09/05 08:55:51;;;;;;;6.60;2.20;;;;;;;;;;4917532;29;20191;-82
2023/09/05 08:58:59;;;;;;;7.03;2.57;;;;;;;;;;4917197;29;20537;-82
2023/09/05 09:02:03;;;;;;;3.05;2.17;;;;;;;;;;4917803;29;20225;-82
2023/09/05 09:05:08;;;;;;;4.20;2.13;;;;;;;;;;4917517;29;20632;-83
2023/09/05 09:08:12;;;;;;;3.83;2.15;;;;;;;;;;4916556;29;20191;-85
2023/09/05 09:11:19;;;;;;;3.67;1.92;;;;;;;;;;4917548;29;20176;-83
2023/09/05 09:14:23;;;;;;;3.08;2.20;;;;;;;;;;4919238;29;20570;-82
2023/09/05 09:17:28;;;;;;;4.80;2.70;;;;;;;;;;4920317;29;20193;-82
2023/09/05 09:20:41;;;;;;;2.28;2.08;;;;;;;;;;4919758;29;20186;-82
2023/09/05 09:23:45;;;;;;;2.47;2.03;;;;;;;;;;4920540;29;20223;-83
2023/09/05 09:26:53;;;;;;;3.22;2.00;;;;;;;;;;4920101;29;20187;-83
2023/09/05 09:29:57;;;;;;;3.88;2.08;;;;;;;;;;4920658;29;20220;-83
2023/09/05 09:33:01;;;;;;;3.58;2.63;;;;;;;;;;4920744;29;20226;-83
2023/09/05 09:36:05;;;;;;;4.55;2.10;;;;;;;;;;4920633;29;20186;-83
2023/09/05 09:39:11;;;;;;;33.95;4.40;;;;;;;;;;4919749;29;20185;-84
2023/09/05 09:42:23;;;;;;;5.15;2.50;;;;;;;;;;4920829;29;20225;-84
2023/09/05 09:45:28;;;;;;;41.10;4.97;;;;;;;;;;4909211;29;20177;-84
2023/09/05 09:48:35;;;;;;;4.93;2.20;;;;;;;;;;4920359;29;20183;-84
2023/09/05 09:51:39;;;;;;;4.90;2.55;;;;;;;;;;4908240;29;20523;-84
2023/09/05 09:54:51;;;;;;;3.08;2.50;;;;;;;;;;4908332;29;20530;-90
2023/09/05 09:58:10;;;;;;;10.82;2.63;;;;;;;;;;4908564;29;20180;-92
2023/09/05 10:01:14;;;;;;;4.20;2.20;;;;;;;;;;4897395;29;20182;-91
2023/09/05 10:04:21;;;;;;;3.60;2.60;;;;;;;;;;4897137;29;20187;-91
2023/09/05 10:07:26;;;;;;;4.45;2.28;;;;;;;;;;4918697;29;20184;-91
2023/09/05 10:10:30;;;;;;;2.50;2.30;;;;;;;;;;4896870;29;20220;-91
2023/09/05 10:13:35;;;;;;;5.65;2.60;;;;;;;;;;4907760;29;20233;-83
2023/09/05 10:16:41;;;;;;;8.50;2.85;;;;;;;;;;4918766;29;20185;-84
2023/09/05 10:19:46;;;;;;;4.40;2.45;;;;;;;;;;4918125;29;20524;-84
2023/09/05 10:22:53;;;;;;;4.68;2.63;;;;;;;;;;4918399;29;20224;-85
2023/09/05 10:25:59;;;;;;;7.20;3.00;;;;;;;;;;4917519;29;20185;-84
2023/09/05 10:29:35;;;;;;;3.08;2.40;;;;;;;;;;4919111;29;20181;-84
2023/09/05 10:32:45;;;;;;;4.70;2.60;;;;;;;;;;4918448;29;20571;-84
2023/09/05 10:35:50;;;;;;;46.15;5.13;;;;;;;;;;4918178;29;20181;-84
2023/09/05 10:38:56;;;;;;;3.55;2.60;;;;;;;;;;4919365;29;20181;-84
2023/09/05 10:42:00;;;;;;;9.02;3.03;;;;;;;;;;4918209;29;20186;-84
2023/09/05 10:45:22;;;;;;;5.85;3.08;;;;;;;;;;4918346;29;20181;-84
2023/09/05 10:48:33;;;;;;;3.28;2.40;;;;;;;;;;4907918;29;20181;-84
2023/09/05 10:52:15;;;;;;;2.92;2.30;;;;;;;;;;4918231;29;20185;-84
2023/09/05 10:55:29;;;;;;;5.65;2.35;;;;;;;;;;4919209;29;20194;-83
2023/09/05 10:58:54;;;;;;;2.92;2.42;;;;;;;;;;4919318;29;20181;-83
2023/09/05 11:02:00;;;;;;;3.65;2.70;;;;;;;;;;4918133;29;20178;-83
2023/09/05 11:05:06;;;;;;;8.02;2.70;;;;;;;;;;4919071;29;20193;-83
2023/09/05 11:08:23;;;;;;;10.23;2.70;;;;;;;;;;4918162;29;20186;-84
2023/09/05 11:11:28;;;;;;;5.45;2.25;;;;;;;;;;4918318;29;20213;-84
2023/09/05 11:14:34;;;;;;;2.60;2.17;;;;;;;;;;4918776;29;20238;-84
2023/09/05 11:17:39;;;;;;;3.83;2.63;;;;;;;;;;4918915;29;20181;-83
2023/09/05 11:20:48;;;;;;;7.43;2.65;;;;;;;;;;4918934;29;20182;-84
2023/09/05 11:23:54;;;;;;;13.05;2.42;;;;;;;;;;4916968;29;20213;-84
2023/09/05 11:26:58;;;;;;;3.38;2.20;;;;;;;;;;4916913;29;20532;-84
2023/09/05 11:30:06;;;;;;;2.75;2.20;;;;;;;;;;4916772;29;20205;-84
2023/09/05 11:33:14;;;;;;;5.38;2.38;;;;;;;;;;4905958;29;20225;-84
2023/09/05 11:36:18;;;;;;;5.45;2.90;;;;;;;;;;4905860;29;20177;-84
2023/09/05 11:39:29;;;;;;;2.65;2.40;;;;;;;;;;4917411;29;20189;-84
2023/09/05 11:42:33;;;;;;;3.53;2.45;;;;;;;;;;4917786;29;20220;-84
2023/09/05 11:45:37;;;;;;;9.68;2.92;;;;;;;;;;4916902;29;20181;-84
2023/09/05 11:48:47;;;;;;;80.47;7.70;;;;;;;;;;4917902;29;20193;-84
2023/09/05 11:51:52;;;;;;;3.65;2.53;;;;;;;;;;4906203;29;20213;-84
2023/09/05 11:54:56;;;;;;;3.72;2.40;;;;;;;;;;4917209;29;20193;-84
2023/09/05 11:58:02;;;;;;;7.65;2.97;;;;;;;;;;4916628;29;20181;-84
2023/09/05 12:01:06;;;;;;;5.97;2.50;;;;;;;;;;4917516;29;20185;-84
2023/09/05 12:04:11;;;;;;;19.70;3.63;;;;;;;;;;4917574;29;20627;-84
2023/09/05 12:07:15;;;;;;;4.10;2.40;;;;;;;;;;4916745;29;20217;-84
2023/09/05 12:10:20;;;;;;;2.90;2.22;;;;;;;;;;4916693;29;20212;-84
2023/09/05 12:13:37;;;;;;;22.73;3.15;;;;;;;;;;4905467;29;20232;-84
2023/09/05 12:16:47;;;;;;;6.32;2.38;;;;;;;;;;4905903;29;20181;-84
2023/09/05 12:19:57;;;;;;;49.15;5.15;;;;;;;;;;4917197;29;20185;-84
2023/09/05 12:23:02;;;;;;;7.13;2.72;;;;;;;;;;4916374;29;20217;-84
2023/09/05 12:26:06;;;;;;;5.45;2.08;;;;;;;;;;4918416;29;20178;-83
2023/09/05 12:29:10;;;;;;;4.15;2.38;;;;;;;;;;4917303;29;20634;-85
2023/09/05 12:32:14;;;;;;;2.65;2.25;;;;;;;;;;4917608;29;20217;-85
2023/09/05 12:35:18;;;;;;;4.43;2.25;;;;;;;;;;4917143;29;20193;-86
2023/09/05 12:38:23;;;;;;;2.72;2.10;;;;;;;;;;4916807;29;20181;-85
2023/09/05 12:41:27;;;;;;;5.60;2.50;;;;;;;;;;4917327;29;20189;-85
2023/09/05 12:44:31;;;;;;;6.00;2.65;;;;;;;;;;4917121;29;20559;-85
2023/09/05 12:47:35;;;;;;;4.38;2.50;;;;;;;;;;4917568;29;20189;-85
2023/09/05 12:50:41;;;;;;;4.82;2.20;;;;;;;;;;4921036;29;20209;-85
2023/09/05 12:53:47;;;;;;;3.25;2.30;;;;;;;;;;4920107;29;20221;-85
2023/09/05 12:56:54;;;;;;;4.38;2.83;;;;;;;;;;4909525;29;20189;-85
2023/09/05 12:59:58;;;;;;;7.93;3.33;;;;;;;;;;4920395;29;20181;-85
2023/09/05 13:03:05;;;;;;;6.35;2.42;;;;;;;;;;4921024;29;20227;-85
2023/09/05 13:06:09;;;;;;;3.67;2.30;;;;;;;;;;4921578;29;20186;-85
2023/09/05 13:09:14;;;;;;;4.82;2.50;;;;;;;;;;4922154;29;20190;-85
2023/09/05 13:12:18;;;;;;;6.55;2.38;;;;;;;;;;4909957;29;20228;-84
2023/09/05 13:15:23;;;;;;;57.20;5.63;;;;;;;;;;4921528;29;20189;-85
2023/09/05 13:18:27;;;;;;;10.75;2.90;;;;;;;;;;4909521;29;20193;-85
2023/09/05 13:21:31;;;;;;;4.03;2.13;;;;;;;;;;4920899;29;20180;-85
2023/09/05 13:24:35;;;;;;;4.15;2.40;;;;;;;;;;4921054;29;20192;-85
2023/09/05 13:27:39;;;;;;;4.05;2.40;;;;;;;;;;4921780;29;20185;-85
2023/09/05 13:30:44;;;;;;;53.15;7.38;;;;;;;;;;4921216;29;20208;-85
2023/09/05 13:33:48;;;;;;;4.20;2.55;;;;;;;;;;4921255;29;20228;-85
2023/09/05 13:36:52;;;;;;;102.57;16.75;;;;;;;;;;4909595;29;20187;-85
2023/09/05 13:39:57;;;;;;;18.52;4.25;;;;;;;;;;4921374;29;20192;-85
2023/09/05 13:43:00;;;;;;;8.18;2.80;;;;;;;;;;4920771;29;20217;-85
2023/09/05 13:46:05;;;;;;;5.78;2.97;;;;;;;;;;4921886;29;20193;-85
2023/09/05 13:49:09;;;;;;;30.83;4.88;;;;;;;;;;4920097;29;20539;-85
2023/09/05 13:52:13;;;;;;;12.73;4.00;;;;;;;;;;4920467;29;20232;-85
2023/09/05 13:55:18;;;;;;;8.38;3.85;;;;;;;;;;4921299;29;20188;-85
2023/09/05 13:58:22;;;;;;;6.85;3.97;;;;;;;;;;4909280;29;20197;-86
2023/09/05 14:01:26;;;;;;;5.53;2.80;;;;;;;;;;4919269;29;20173;-84
2023/09/05 14:04:30;;;;;;;3.28;2.90;;;;;;;;;;4919344;29;20193;-85
2023/09/05 14:07:36;;;;;;;4.38;2.80;;;;;;;;;;4919830;29;20188;-84
2023/09/05 14:10:41;;;;;;;3.97;2.70;;;;;;;;;;4918914;29;20544;-84
2023/09/05 14:13:45;;;;;;;5.50;2.60;;;;;;;;;;4919661;29;20238;-84
2023/09/05 14:16:53;;;;;;;21.80;3.67;;;;;;;;;;4919582;29;20181;-85
2023/09/05 14:19:58;;;;;;;133.63;10.77;;;;;;;;;;4907569;29;20188;-84
2023/09/05 14:23:02;;;;;;;10.02;2.92;;;;;;;;;;4907744;29;20338;-84
2023/09/05 14:26:07;;;;;;;4.75;2.95;;;;;;;;;;4919422;29;20190;-83
2023/09/05 14:29:12;;;;;;;5.90;3.33;;;;;;;;;;4918363;29;20657;-84
2023/09/05 14:32:16;;;;;;;48.05;6.28;;;;;;;;;;4918302;29;20232;-84
2023/09/05 14:35:21;;;;;;;21.40;3.70;;;;;;;;;;4918023;29;20193;-85
2023/09/05 14:38:25;;;;;;;9.85;2.90;;;;;;;;;;4918639;29;20185;-84
2023/09/05 14:41:33;;;;;;;2.85;2.65;;;;;;;;;;4907846;29;20184;-84
2023/09/05 14:44:37;;;;;;;8.77;3.45;;;;;;;;;;4918617;29;20185;-84
2023/09/05 14:47:41;;;;;;;7.05;3.00;;;;;;;;;;4906884;29;20191;-84
2023/09/05 14:50:45;;;;;;;20.65;3.35;;;;;;;;;;4907135;29;20558;-84
2023/09/05 14:53:49;;;;;;;9.57;3.53;;;;;;;;;;4917509;29;20705;-85
2023/09/05 14:56:54;;;;;;;20.25;4.53;;;;;;;;;;4906912;29;20634;-85
2023/09/05 14:59:58;;;;;;;28.05;4.57;;;;;;;;;;4917826;29;20191;-85
2023/09/05 15:03:02;;;;;;;5.05;3.10;;;;;;;;;;4917939;29;20218;-85
2023/09/05 15:06:07;;;;;;;4.93;3.45;;;;;;;;;;4917406;29;20185;-85
2023/09/05 15:09:13;;;;;;;6.22;3.10;;;;;;;;;;4917993;29;20189;-85
2023/09/05 15:12:18;;;;;;;3.88;2.90;;;;;;;;;;4906526;29;20236;-85
2023/09/05 15:15:22;;;;;;;11.35;3.15;;;;;;;;;;4918527;29;20645;-85
2023/09/05 15:18:28;;;;;;;112.45;12.02;;;;;;;;;;4918406;29;20184;-88
2023/09/05 15:21:31;;;;;;;24.17;3.90;;;;;;;;;;4918143;29;20541;-84
2023/09/05 15:24:36;;;;;;;50.13;5.60;;;;;;;;;;4918500;29;20187;-84
2023/09/05 15:27:41;;;;;;;6.88;3.08;;;;;;;;;;4918343;29;20188;-84
2023/09/05 15:30:45;;;;;;;5.93;3.40;;;;;;;;;;4908024;29;20192;-84
2023/09/05 15:33:51;;;;;;;4.47;3.22;;;;;;;;;;4918796;29;20705;-85
2023/09/05 15:36:56;;;;;;;104.55;8.80;;;;;;;;;;4919047;29;20539;-85
2023/09/05 15:40:01;;;;;;;6.10;3.15;;;;;;;;;;4919244;29;20195;-84
2023/09/05 15:43:06;;;;;;;5.35;3.33;;;;;;;;;;4922208;29;20219;-85
2023/09/05 15:46:10;;;;;;;17.70;4.05;;;;;;;;;;4920318;29;20182;-84
2023/09/05 15:49:14;;;;;;;4.28;3.00;;;;;;;;;;4918201;29;20187;-84
2023/09/05 15:52:18;;;;;;;5.97;3.50;;;;;;;;;;4919034;29;20236;-84
2023/09/05 15:55:22;;;;;;;6.80;3.10;;;;;;;;;;4907564;29;20647;-84
2023/09/05 15:58:27;;;;;;;4.15;3.08;;;;;;;;;;4918561;29;20189;-84
2023/09/05 16:01:31;;;;;;;3.67;2.80;;;;;;;;;;4919082;29;20181;-84
2023/09/05 16:04:35;;;;;;;11.73;4.30;;;;;;;;;;4919035;29;20188;-84
2023/09/05 16:07:39;;;;;;;28.50;4.97;;;;;;;;;;4919643;29;20189;-84
2023/09/05 16:10:44;;;;;;;56.40;6.10;;;;;;;;;;4918446;29;20185;-85
2023/09/05 16:13:48;;;;;;;58.27;6.80;;;;;;;;;;4918728;29;20220;-85
2023/09/05 16:16:53;;;;;;;9.23;3.53;;;;;;;;;;4918329;29;20193;-84
2023/09/05 16:19:57;;;;;;;7.63;3.90;;;;;;;;;;4920424;29;20185;-85
2023/09/05 16:23:01;;;;;;;6.83;3.70;;;;;;;;;;4920634;29;20224;-84
2023/09/05 16:26:05;;;;;;;10.80;3.77;;;;;;;;;;4922947;29;20185;-84
2023/09/05 16:29:10;;;;;;;27.03;5.17;;;;;;;;;;4923257;29;20553;-84
2023/09/05 16:32:14;;;;;;;11.73;3.60;;;;;;;;;;4923202;29;20233;-84
2023/09/05 16:35:18;;;;;;;3.83;3.10;;;;;;;;;;4912320;29;20187;-85
2023/09/05 16:38:23;;;;;;;3.33;2.67;;;;;;;;;;4922431;29;20182;-84
2023/09/05 16:41:29;;;;;;;8.17;3.30;;;;;;;;;;4922286;29;20180;-84
2023/09/05 16:44:33;;;;;;;5.67;3.10;;;;;;;;;;4923597;29;20186;-85
2023/09/05 16:47:38;;;;;;;3.47;2.50;;;;;;;;;;4922648;29;20187;-84
2023/09/05 16:50:43;;;;;;;19.47;4.50;;;;;;;;;;4911891;29;20190;-85
2023/09/05 16:53:47;;;;;;;4.17;2.73;;;;;;;;;;4922387;29;20213;-84
2023/09/05 16:56:51;;;;;;;3.60;2.90;;;;;;;;;;4922159;29;20197;-84
2023/09/05 16:59:55;;;;;;;3.90;2.73;;;;;;;;;;4923611;29;20185;-84
2023/09/05 17:02:59;;;;;;;6.67;3.10;;;;;;;;;;4923481;29;20224;-84
2023/09/05 17:06:03;;;;;;;12.97;3.23;;;;;;;;;;4923681;29;20189;-85
2023/09/05 17:09:08;;;;;;;5.33;2.87;;;;;;;;;;4923661;29;20185;-84
2023/09/05 17:12:12;;;;;;;4.53;2.80;;;;;;;;;;4921905;29;20571;-85
2023/09/05 17:15:16;;;;;;;12.33;3.00;;;;;;;;;;4911026;29;20185;-84
2023/09/05 17:18:21;;;;;;;22.77;4.27;;;;;;;;;;4911139;29;20189;-84
2023/09/05 17:21:25;;;;;;;34.63;5.47;;;;;;;;;;4923755;29;20184;-84
2023/09/05 17:24:29;;;;;;;95.93;9.03;;;;;;;;;;4922990;29;20185;-85
2023/09/05 17:27:33;;;;;;;70.90;8.47;;;;;;;;;;4910686;29;20197;-84
2023/09/05 17:30:38;;;;;;;54.80;6.53;;;;;;;;;;4922378;29;20180;-84
2023/09/05 17:33:42;;;;;;;49.20;6.73;;;;;;;;;;4921497;29;20742;-84
2023/09/05 17:36:46;;;;;;;33.97;5.13;;;;;;;;;;4921142;29;20536;-84
2023/09/05 17:39:50;;;;;;;13.83;4.00;;;;;;;;;;4921140;29;20524;-82
2023/09/05 17:42:54;;;;;;;6.30;3.60;;;;;;;;;;4921192;29;20575;-83
2023/09/05 17:46:04;;;;;;;5.20;3.20;;;;;;;;;;4919931;29;20627;-84
2023/09/05 17:49:08;;;;;;;31.27;4.80;;;;;;;;;;4920690;29;20181;-84
2023/09/05 17:52:13;;;;;;;10.20;3.63;;;;;;;;;;4922587;29;20228;-81
2023/09/05 17:55:17;;;;;;;7.67;3.47;;;;;;;;;;4922253;29;20188;-81
2023/09/05 17:58:21;;;;;;;5.60;3.60;;;;;;;;;;4922372;29;20189;-81
2023/09/05 18:01:25;;;;;;;4.72;3.88;;;;;;;;;;4919602;29;20650;-81
2023/09/05 18:04:29;;;;;;;5.70;3.57;;;;;;;;;;4922397;29;20185;-81
2023/09/05 18:07:36;;;;;;;7.17;3.60;;;;;;;;;;4921678;29;20185;-82
2023/09/05 18:10:41;;;;;;;4.73;3.43;;;;;;;;;;4921452;29;20189;-82
2023/09/05 18:13:45;;;;;;;12.00;3.30;;;;;;;;;;4921757;29;20228;-81
2023/09/05 18:16:50;;;;;;;6.73;3.67;;;;;;;;;;4920791;29;20532;-80
2023/09/05 18:19:54;;;;;;;7.77;3.20;;;;;;;;;;4921370;29;20185;-80
2023/09/05 18:22:58;;;;;;;5.03;3.60;;;;;;;;;;4921589;29;20217;-79
2023/09/05 18:26:09;;;;;;;5.90;3.70;;;;;;;;;;4922651;29;20181;-82
2023/09/05 18:29:15;;;;;;;4.90;3.40;;;;;;;;;;4922578;29;20181;-81
2023/09/05 18:32:20;;;;;;;4.57;3.33;;;;;;;;;;4928715;29;20232;-81